createdAt,value
2018-10-05T00:01:35.432Z,9.90
2018-10-05T00:04:04.561Z,9.90
2018-10-05T00:06:32.908Z,9.90
2018-10-05T00:09:01.675Z,9.90
2018-10-05T00:11:30.473Z,9.90
2018-10-05T00:13:58.797Z,9.90
2018-10-05T00:16:27.497Z,9.90
2018-10-05T00:18:56.349Z,9.90
2018-10-05T00:21:24.668Z,9.90
2018-10-05T00:23:52.988Z,9.90
2018-10-05T00:26:21.375Z,9.90
2018-10-05T00:28:49.686Z,9.90
2018-10-05T00:31:18.367Z,9.90
2018-10-05T00:33:46.768Z,10.00
2018-10-05T00:36:15.152Z,10.00
2018-10-05T00:38:43.559Z,10.00
2018-10-05T00:41:12.242Z,10.10
2018-10-05T00:43:40.595Z,10.10
2018-10-05T00:46:09.033Z,10.00
2018-10-05T00:48:37.370Z,10.10
2018-10-05T00:51:05.712Z,10.10
2018-10-05T00:53:34.124Z,10.20
2018-10-05T00:56:02.624Z,10.30
2018-10-05T00:58:30.960Z,10.30
2018-10-05T01:00:59.293Z,10.40
2018-10-05T01:03:28.270Z,10.50
2018-10-05T01:05:56.585Z,10.50
2018-10-05T01:08:24.942Z,10.50
2018-10-05T01:10:54.219Z,10.50
2018-10-05T01:13:22.585Z,10.60
2018-10-05T01:15:51.184Z,10.60
2018-10-05T01:18:19.891Z,10.60
2018-10-05T01:20:49.027Z,10.70
2018-10-05T01:23:17.495Z,10.70
2018-10-05T01:25:45.893Z,10.60
2018-10-05T01:28:14.423Z,10.60
2018-10-05T01:30:43.089Z,10.60
2018-10-05T01:33:11.817Z,10.60
2018-10-05T01:35:40.211Z,10.60
2018-10-05T01:38:08.981Z,10.70
2018-10-05T01:40:37.914Z,10.70
2018-10-05T01:43:06.651Z,10.70
2018-10-05T01:45:34.951Z,10.70
2018-10-05T01:48:03.469Z,10.70
2018-10-05T01:50:32.312Z,10.70
2018-10-05T01:53:00.658Z,10.70
2018-10-05T01:55:29.007Z,10.80
2018-10-05T01:57:57.328Z,10.80
2018-10-05T02:00:25.984Z,10.80
2018-10-05T02:02:54.283Z,10.80
2018-10-05T02:05:22.827Z,10.80
2018-10-05T02:07:51.145Z,10.80
2018-10-05T02:10:19.516Z,10.80
2018-10-05T02:12:48.249Z,10.80
2018-10-05T02:15:16.575Z,10.90
2018-10-05T02:17:45.215Z,10.90
2018-10-05T02:20:13.531Z,10.90
2018-10-05T02:22:41.858Z,10.90
2018-10-05T02:25:10.793Z,11.00
2018-10-05T02:27:39.188Z,11.00
2018-10-05T02:30:07.606Z,11.00
2018-10-05T02:32:36.609Z,11.10
2018-10-05T02:35:05.160Z,11.10
2018-10-05T02:37:33.597Z,11.10
2018-10-05T02:40:01.942Z,11.20
2018-10-05T02:42:30.353Z,11.20
2018-10-05T02:44:58.839Z,11.30
2018-10-05T02:47:27.528Z,11.30
2018-10-05T02:49:56.002Z,11.30
2018-10-05T02:52:24.478Z,11.30
2018-10-05T02:54:52.961Z,11.30
2018-10-05T02:57:21.445Z,11.40
2018-10-05T02:59:49.754Z,11.40
2018-10-05T03:02:29.844Z,11.40
2018-10-05T03:04:58.375Z,11.40
2018-10-05T03:07:27.823Z,11.50
2018-10-05T03:09:56.905Z,11.50
2018-10-05T03:12:25.268Z,11.50
2018-10-05T03:14:54.115Z,11.60
2018-10-05T03:17:22.767Z,11.60
2018-10-05T03:19:51.520Z,11.60
2018-10-05T03:22:20.001Z,11.60
2018-10-05T03:24:48.704Z,11.70
2018-10-05T03:27:17.084Z,11.70
2018-10-05T03:29:45.581Z,11.70
2018-10-05T03:32:14.553Z,11.80
2018-10-05T03:34:42.979Z,11.80
2018-10-05T03:37:11.317Z,11.80
2018-10-05T03:39:40.247Z,11.80
2018-10-05T03:42:08.739Z,11.80
2018-10-05T03:44:37.037Z,11.80
2018-10-05T03:47:05.759Z,11.80
2018-10-05T03:49:34.143Z,11.90
2018-10-05T03:52:02.730Z,11.90
2018-10-05T03:54:31.494Z,12.00
2018-10-05T03:56:59.814Z,12.00
2018-10-05T03:59:28.264Z,12.20
2018-10-05T04:01:56.919Z,12.30
2018-10-05T04:04:25.592Z,12.30
2018-10-05T04:06:54.260Z,12.30
2018-10-05T04:09:22.970Z,12.40
2018-10-05T04:11:51.435Z,12.40
2018-10-05T04:14:19.744Z,12.40
2018-10-05T04:16:48.632Z,12.40
2018-10-05T04:19:17.025Z,12.40
2018-10-05T04:21:45.434Z,12.40
2018-10-05T04:24:13.742Z,12.40
2018-10-05T04:26:42.043Z,12.40
2018-10-05T04:29:10.584Z,12.60
2018-10-05T04:31:39.129Z,12.60
2018-10-05T04:34:07.728Z,12.60
2018-10-05T04:36:36.057Z,12.60
2018-10-05T04:39:05.544Z,12.60
2018-10-05T04:41:34.164Z,12.50
2018-10-05T04:44:02.500Z,12.60
2018-10-05T04:46:31.207Z,12.60
2018-10-05T04:48:59.780Z,12.60
2018-10-05T04:51:28.600Z,12.70
2018-10-05T04:53:57.306Z,12.70
2018-10-05T04:56:25.698Z,12.80
2018-10-05T04:58:54.017Z,12.80
2018-10-05T05:01:22.731Z,12.80
2018-10-05T05:03:51.198Z,12.80
2018-10-05T05:06:19.547Z,12.80
2018-10-05T05:08:48.345Z,12.90
2018-10-05T05:11:17.545Z,12.90
2018-10-05T05:13:45.912Z,12.90
2018-10-05T05:16:14.908Z,12.90
2018-10-05T05:18:43.905Z,12.80
2018-10-05T05:21:12.471Z,12.80
2018-10-05T05:23:41.070Z,13.00
2018-10-05T05:26:09.713Z,13.00
2018-10-05T05:28:38.404Z,13.00
2018-10-05T05:31:07.477Z,13.00
2018-10-05T05:33:35.982Z,13.00
2018-10-05T05:36:04.321Z,13.00
2018-10-05T05:38:33.152Z,13.00
2018-10-05T05:41:01.709Z,12.90
2018-10-05T05:43:30.915Z,13.00
2018-10-05T05:45:59.561Z,13.00
2018-10-05T05:48:28.013Z,13.00
2018-10-05T05:50:56.396Z,13.00
2018-10-05T05:53:25.535Z,13.00
2018-10-05T05:55:54.092Z,13.10
2018-10-05T05:58:22.467Z,13.00
2018-10-05T06:00:51.579Z,13.10
2018-10-05T06:03:20.071Z,13.10
2018-10-05T06:05:48.396Z,13.10
2018-10-05T06:08:17.520Z,13.10
2018-10-05T06:10:45.914Z,13.10
2018-10-05T06:13:14.244Z,13.20
2018-10-05T06:15:43.020Z,13.30
2018-10-05T06:18:11.369Z,13.20
2018-10-05T06:20:40.394Z,13.20
2018-10-05T06:23:08.899Z,13.20
2018-10-05T06:25:37.422Z,13.20
2018-10-05T06:28:06.044Z,13.20
2018-10-05T06:30:34.837Z,13.20
2018-10-05T06:33:03.614Z,13.30
2018-10-05T06:35:31.893Z,13.30
2018-10-05T06:38:00.559Z,13.40
2018-10-05T06:40:29.344Z,13.40
2018-10-05T06:42:57.678Z,13.40
2018-10-05T06:45:26.448Z,13.50
2018-10-05T06:47:54.839Z,13.50
2018-10-05T06:50:23.265Z,13.50
2018-10-05T06:52:52.635Z,13.50
2018-10-05T06:55:20.963Z,13.50
2018-10-05T06:57:49.250Z,13.60
2018-10-05T07:00:18.587Z,13.60
2018-10-05T07:02:46.931Z,13.60
2018-10-05T07:05:15.567Z,13.70
2018-10-05T07:07:44.677Z,13.70
2018-10-05T07:10:13.447Z,13.70
2018-10-05T07:12:42.016Z,13.70
2018-10-05T07:15:10.538Z,13.70
2018-10-05T07:17:38.874Z,13.70
2018-10-05T07:20:07.634Z,13.70
2018-10-05T07:22:36.621Z,13.70
2018-10-05T07:25:05.081Z,13.70
2018-10-05T07:27:33.706Z,13.80
2018-10-05T07:30:02.506Z,13.80
2018-10-05T07:32:30.812Z,13.80
2018-10-05T07:34:59.160Z,13.80
2018-10-05T07:37:27.913Z,13.90
2018-10-05T07:39:56.318Z,13.80
2018-10-05T07:42:24.698Z,13.80
2018-10-05T07:44:53.073Z,13.90
2018-10-05T07:47:21.444Z,13.90
2018-10-05T07:49:49.829Z,13.90
2018-10-05T07:52:18.764Z,14.00
2018-10-05T07:54:47.040Z,14.10
2018-10-05T07:57:15.373Z,14.10
2018-10-05T07:59:44.470Z,14.20
2018-10-05T08:02:12.776Z,14.30
2018-10-05T08:04:41.216Z,14.30
2018-10-05T08:07:09.907Z,14.40
2018-10-05T08:09:38.345Z,14.50
2018-10-05T08:12:06.762Z,14.40
2018-10-05T08:14:35.323Z,14.50
2018-10-05T08:17:03.695Z,14.50
2018-10-05T08:19:32.015Z,14.60
2018-10-05T08:22:00.415Z,14.60
2018-10-05T08:24:28.968Z,14.60
2018-10-05T08:26:57.535Z,14.60
2018-10-05T08:29:25.869Z,14.50
2018-10-05T08:31:54.244Z,14.50
2018-10-05T08:34:22.988Z,14.50
2018-10-05T08:36:51.723Z,14.50
2018-10-05T08:39:20.124Z,14.50
2018-10-05T08:41:48.496Z,14.60
2018-10-05T08:44:17.416Z,14.70
2018-10-05T08:46:45.826Z,14.80
2018-10-05T08:49:14.198Z,14.90
2018-10-05T08:51:42.996Z,15.00
2018-10-05T08:54:11.276Z,15.50
2018-10-05T08:56:39.623Z,16.10
2018-10-05T08:59:08.349Z,16.70
2018-10-05T09:01:36.647Z,17.30
2018-10-05T09:04:05.122Z,17.80
2018-10-05T09:06:33.964Z,17.60
2018-10-05T09:09:02.310Z,17.20
2018-10-05T09:11:31.210Z,16.90
2018-10-05T09:13:59.788Z,16.90
2018-10-05T09:16:28.071Z,16.90
2018-10-05T09:18:56.514Z,16.80
2018-10-05T09:21:25.103Z,16.70
2018-10-05T09:23:53.868Z,16.90
2018-10-05T09:26:22.595Z,17.10
2018-10-05T09:28:51.225Z,16.70
2018-10-05T09:31:19.575Z,16.40
2018-10-05T09:33:47.904Z,16.30
2018-10-05T09:36:16.258Z,16.10
2018-10-05T09:38:44.833Z,16.00
2018-10-05T09:41:13.327Z,15.90
2018-10-05T09:43:41.944Z,16.40
2018-10-05T09:46:10.335Z,17.20
2018-10-05T09:48:38.899Z,18.00
2018-10-05T09:51:07.641Z,18.20
2018-10-05T09:53:36.008Z,17.70
2018-10-05T09:56:04.936Z,16.70
2018-10-05T09:58:33.768Z,16.10
2018-10-05T10:01:07.862Z,15.80
2018-10-05T10:03:37.133Z,15.50
2018-10-05T10:06:06.317Z,15.40
2018-10-05T10:08:35.071Z,15.30
2018-10-05T10:11:03.875Z,15.20
2018-10-05T10:13:32.627Z,15.20
2018-10-05T10:16:00.955Z,15.10
2018-10-05T10:18:30.110Z,15.10
2018-10-05T10:20:58.567Z,15.10
2018-10-05T10:23:26.986Z,15.60
2018-10-05T10:25:56.052Z,16.30
2018-10-05T10:28:25.246Z,16.90
2018-10-05T10:30:53.611Z,17.20
2018-10-05T10:33:22.357Z,18.00
2018-10-05T10:35:51.008Z,20.00
2018-10-05T10:38:19.369Z,21.10
2018-10-05T10:40:48.114Z,20.00
2018-10-05T10:43:17.103Z,18.60
2018-10-05T10:45:45.432Z,17.60
2018-10-05T10:48:14.085Z,17.00
2018-10-05T10:50:42.485Z,16.70
2018-10-05T10:53:11.125Z,16.50
2018-10-05T10:55:39.909Z,16.40
2018-10-05T10:58:08.856Z,16.30
2018-10-05T11:00:37.318Z,16.20
2018-10-05T11:03:06.114Z,16.10
2018-10-05T11:05:34.391Z,16.10
2018-10-05T11:08:03.076Z,16.10
2018-10-05T11:10:32.077Z,16.00
2018-10-05T11:13:00.625Z,16.00
2018-10-05T11:15:28.938Z,16.10
2018-10-05T11:17:57.819Z,16.20
2018-10-05T11:20:26.203Z,16.20
2018-10-05T11:22:54.575Z,16.30
2018-10-05T11:25:23.762Z,16.30
2018-10-05T11:27:52.252Z,16.40
2018-10-05T11:30:21.093Z,16.60
2018-10-05T11:32:56.249Z,16.70
2018-10-05T11:35:24.607Z,16.70
2018-10-05T11:37:53.443Z,16.50
2018-10-05T11:40:22.632Z,16.60
2018-10-05T11:42:50.984Z,16.70
2018-10-05T11:45:19.721Z,16.70
2018-10-05T11:47:48.241Z,16.70
2018-10-05T11:50:17.070Z,16.60
2018-10-05T11:52:45.513Z,16.50
2018-10-05T11:55:14.330Z,16.40
2018-10-05T11:57:43.480Z,16.40
2018-10-05T12:00:11.891Z,16.20
2018-10-05T12:02:41.159Z,16.20
2018-10-05T12:05:09.570Z,16.20
2018-10-05T12:07:37.939Z,16.20
2018-10-05T12:10:06.494Z,16.10
2018-10-05T12:12:34.847Z,16.00
2018-10-05T12:15:03.239Z,15.90
2018-10-05T12:17:32.080Z,16.00
2018-10-05T12:20:00.410Z,16.00
2018-10-05T12:22:28.782Z,16.00
2018-10-05T12:24:57.736Z,16.00
2018-10-05T12:27:26.319Z,16.00
2018-10-05T12:29:55.206Z,16.00
2018-10-05T12:32:24.353Z,15.90
2018-10-05T12:34:53.019Z,15.90
2018-10-05T12:37:21.398Z,15.90
2018-10-05T12:39:50.048Z,16.00
2018-10-05T12:42:18.424Z,16.00
2018-10-05T12:44:47.319Z,16.10
2018-10-05T12:47:16.083Z,16.10
2018-10-05T12:49:44.415Z,16.20
2018-10-05T12:52:12.890Z,16.20
2018-10-05T12:54:42.051Z,16.10
2018-10-05T12:57:10.368Z,16.00
2018-10-05T12:59:38.982Z,16.10
2018-10-05T13:02:08.366Z,16.10
2018-10-05T13:04:36.749Z,16.00
2018-10-05T13:07:05.132Z,16.00
2018-10-05T13:09:33.607Z,15.90
2018-10-05T13:12:02.130Z,15.90
2018-10-05T13:14:30.498Z,15.90
2018-10-05T13:16:59.061Z,15.90
2018-10-05T13:19:27.437Z,15.80
2018-10-05T13:21:55.771Z,15.80
2018-10-05T13:24:24.344Z,15.80
2018-10-05T13:26:52.673Z,15.70
2018-10-05T13:29:21.018Z,15.70
2018-10-05T13:31:50.040Z,15.70
2018-10-05T13:34:18.709Z,15.70
2018-10-05T13:36:47.054Z,15.60
2018-10-05T13:39:15.720Z,15.50
2018-10-05T13:41:44.101Z,15.50
2018-10-05T13:44:12.674Z,15.40
2018-10-05T13:46:41.162Z,15.30
2018-10-05T13:49:09.543Z,15.30
2018-10-05T13:51:38.309Z,15.20
2018-10-05T13:54:07.042Z,15.20
2018-10-05T13:56:35.793Z,15.10
2018-10-05T13:59:05.031Z,15.10
2018-10-05T14:01:33.780Z,15.00
2018-10-05T14:04:02.124Z,15.00
2018-10-05T14:06:30.518Z,15.00
2018-10-05T14:08:59.014Z,15.00
2018-10-05T14:11:27.326Z,15.00
2018-10-05T14:13:55.861Z,15.10
2018-10-05T14:16:24.494Z,15.10
2018-10-05T14:18:52.967Z,15.10
2018-10-05T14:21:21.716Z,15.20
2018-10-05T14:23:50.325Z,15.10
2018-10-05T14:26:18.675Z,15.00
2018-10-05T14:28:47.029Z,15.00
2018-10-05T14:31:15.779Z,15.00
2018-10-05T14:33:44.398Z,14.90
2018-10-05T14:36:13.210Z,14.80
2018-10-05T14:38:41.517Z,14.80
2018-10-05T14:41:09.845Z,14.80
2018-10-05T14:43:38.181Z,14.80
2018-10-05T14:46:07.212Z,14.80
2018-10-05T14:48:35.517Z,14.80
2018-10-05T14:51:03.821Z,14.80
2018-10-05T14:53:32.349Z,14.80
2018-10-05T14:56:00.798Z,14.80
2018-10-05T14:58:29.129Z,14.80
2018-10-05T15:00:57.527Z,14.70
2018-10-05T15:03:25.889Z,14.70
2018-10-05T15:05:54.228Z,14.60
2018-10-05T15:08:22.988Z,14.50
2018-10-05T15:10:51.439Z,14.40
2018-10-05T15:13:19.833Z,14.40
2018-10-05T15:15:48.312Z,14.30
2018-10-05T15:18:16.859Z,14.30
2018-10-05T15:20:45.437Z,14.20
2018-10-05T15:23:14.192Z,14.20
2018-10-05T15:25:42.706Z,14.20
2018-10-05T15:28:11.770Z,14.10
2018-10-05T15:30:40.089Z,14.10
2018-10-05T15:33:08.446Z,14.10
2018-10-05T15:35:37.524Z,14.00
2018-10-05T15:38:06.440Z,13.90
2018-10-05T15:40:34.726Z,13.80
2018-10-05T15:43:03.228Z,13.80
2018-10-05T15:45:31.764Z,13.80
2018-10-05T15:48:00.372Z,13.70
2018-10-05T15:50:28.730Z,13.60
2018-10-05T15:52:57.676Z,13.60
2018-10-05T15:55:26.000Z,13.60
2018-10-05T15:57:54.310Z,13.50
2018-10-05T16:00:23.057Z,13.50
2018-10-05T16:02:51.420Z,13.30
2018-10-05T16:05:19.810Z,13.30
2018-10-05T16:07:48.575Z,13.30
2018-10-05T16:10:17.034Z,13.20
2018-10-05T16:12:45.357Z,13.10
2018-10-05T16:15:13.742Z,13.10
2018-10-05T16:17:42.064Z,13.00
2018-10-05T16:20:10.466Z,13.00
2018-10-05T16:22:38.823Z,13.00
2018-10-05T16:25:07.147Z,13.00
2018-10-05T16:27:35.470Z,12.90
2018-10-05T16:30:04.632Z,12.90
2018-10-05T16:32:32.990Z,12.90
2018-10-05T16:35:01.336Z,12.90
2018-10-05T16:37:30.502Z,12.90
2018-10-05T16:39:58.679Z,12.80
2018-10-05T16:42:27.068Z,12.80
2018-10-05T16:44:55.421Z,12.80
2018-10-05T16:47:24.135Z,12.80
2018-10-05T16:49:52.506Z,12.80
2018-10-05T16:52:21.307Z,12.70
2018-10-05T16:54:49.875Z,12.70
2018-10-05T16:57:18.221Z,12.70
2018-10-05T16:59:47.045Z,12.70
2018-10-05T17:02:15.386Z,12.60
2018-10-05T17:04:43.712Z,12.60
2018-10-05T17:07:12.827Z,12.50
2018-10-05T17:09:41.127Z,12.50
2018-10-05T17:12:09.498Z,12.40
2018-10-05T17:14:38.032Z,12.30
2018-10-05T17:17:06.550Z,12.30
2018-10-05T17:19:34.840Z,12.20
2018-10-05T17:22:03.668Z,12.20
2018-10-05T17:24:31.997Z,12.20
2018-10-05T17:27:00.678Z,12.20
2018-10-05T17:29:29.358Z,12.10
2018-10-05T17:31:57.651Z,12.10
2018-10-05T17:34:26.004Z,12.00
2018-10-05T17:36:54.842Z,11.90
2018-10-05T17:39:23.148Z,11.90
2018-10-05T17:41:51.515Z,11.80
2018-10-05T17:44:20.284Z,11.80
2018-10-05T17:46:48.913Z,11.70
2018-10-05T17:49:17.520Z,11.60
2018-10-05T17:51:46.373Z,11.60
2018-10-05T17:54:14.737Z,11.50
2018-10-05T17:56:43.321Z,11.50
2018-10-05T17:59:12.087Z,11.50
2018-10-05T18:01:40.787Z,11.40
2018-10-05T18:04:09.075Z,11.30
2018-10-05T18:06:37.864Z,11.20
2018-10-05T18:09:07.434Z,11.20
2018-10-05T18:11:36.139Z,11.20
2018-10-05T18:14:05.151Z,11.10
2018-10-05T18:16:33.744Z,11.00
2018-10-05T18:19:02.244Z,11.00
2018-10-05T18:21:31.236Z,11.10
2018-10-05T18:23:59.607Z,11.10
2018-10-05T18:26:28.149Z,11.00
2018-10-05T18:28:56.782Z,11.00
2018-10-05T18:31:25.090Z,11.00
2018-10-05T18:33:53.404Z,10.90
2018-10-05T18:36:22.208Z,10.90
2018-10-05T18:38:50.510Z,10.90
2018-10-05T18:41:18.875Z,10.90
2018-10-05T18:43:47.672Z,10.90
2018-10-05T18:46:16.056Z,11.00
2018-10-05T18:48:44.474Z,11.00
2018-10-05T18:51:13.318Z,10.90
2018-10-05T18:53:41.851Z,11.00
2018-10-05T18:56:21.555Z,11.00
2018-10-05T18:58:50.271Z,11.00
2018-10-05T19:01:19.005Z,11.00
2018-10-05T19:03:47.542Z,11.00
2018-10-05T19:06:15.918Z,11.00
2018-10-05T19:08:44.790Z,11.00
2018-10-05T19:11:13.485Z,11.00
2018-10-05T19:13:41.845Z,11.00
2018-10-05T19:16:10.498Z,11.00
2018-10-05T19:18:39.083Z,11.00
2018-10-05T19:21:07.393Z,11.00
2018-10-05T19:23:35.933Z,11.00
2018-10-05T19:26:04.789Z,11.00
2018-10-05T19:28:33.605Z,11.00
2018-10-05T19:31:01.919Z,10.90
2018-10-05T19:33:30.562Z,10.90
2018-10-05T19:35:59.010Z,10.90
2018-10-05T19:38:27.473Z,10.90
2018-10-05T19:40:56.167Z,10.90
2018-10-05T19:43:24.592Z,10.90
2018-10-05T19:45:52.914Z,10.90
2018-10-05T19:48:21.426Z,10.80
2018-10-05T19:50:49.728Z,10.80
2018-10-05T19:53:18.378Z,10.80
2018-10-05T19:55:46.869Z,10.80
2018-10-05T19:58:15.238Z,10.80
2018-10-05T20:00:44.159Z,10.80
2018-10-05T20:03:12.915Z,10.90
2018-10-05T20:05:41.551Z,10.90
2018-10-05T20:08:10.128Z,10.90
2018-10-05T20:10:38.930Z,10.90
2018-10-05T20:13:07.551Z,10.90
2018-10-05T20:15:35.879Z,10.90
2018-10-05T20:18:04.556Z,10.90
2018-10-05T20:20:32.823Z,10.90
2018-10-05T20:23:01.312Z,11.00
2018-10-05T20:25:30.290Z,10.90
2018-10-05T20:27:58.734Z,10.90
2018-10-05T20:30:27.050Z,10.90
2018-10-05T20:32:56.044Z,10.90
2018-10-05T20:35:24.390Z,10.90
2018-10-05T20:37:53.152Z,11.00
2018-10-05T20:40:21.832Z,10.90
2018-10-05T20:42:50.160Z,10.90
2018-10-05T20:45:18.640Z,10.90
2018-10-05T20:47:47.596Z,10.90
2018-10-05T20:50:16.057Z,10.90
2018-10-05T20:52:44.693Z,10.90
2018-10-05T20:55:13.630Z,10.90
2018-10-05T20:57:41.955Z,10.90
2018-10-05T21:00:10.631Z,10.90
2018-10-05T21:02:39.738Z,10.90
2018-10-05T21:05:08.304Z,10.90
2018-10-05T21:07:36.811Z,10.80
2018-10-05T21:10:05.768Z,10.80
2018-10-05T21:12:34.172Z,10.70
2018-10-05T21:15:02.831Z,10.70
2018-10-05T21:17:31.319Z,10.60
2018-10-05T21:19:59.645Z,10.60
2018-10-05T21:22:28.031Z,10.50
2018-10-05T21:24:56.753Z,10.50
2018-10-05T21:27:25.361Z,10.40
2018-10-05T21:29:53.814Z,10.40
2018-10-05T21:32:22.480Z,10.40
2018-10-05T21:34:51.301Z,10.30
2018-10-05T21:37:19.793Z,10.30
2018-10-05T21:39:49.025Z,10.30
2018-10-05T21:42:17.664Z,10.30
2018-10-05T21:44:46.058Z,10.30
2018-10-05T21:47:14.802Z,10.20
2018-10-05T21:49:43.113Z,10.20
2018-10-05T21:52:11.761Z,10.20
2018-10-05T21:54:40.409Z,10.20
2018-10-05T21:57:08.771Z,10.20
2018-10-05T21:59:37.544Z,10.20
2018-10-05T22:02:06.281Z,10.20
2018-10-05T22:04:35.016Z,10.10
2018-10-05T22:07:03.580Z,10.10
2018-10-05T22:09:32.165Z,10.00
2018-10-05T22:12:00.947Z,10.00
2018-10-05T22:14:29.295Z,9.90
2018-10-05T22:16:57.899Z,9.90
2018-10-05T22:19:26.485Z,9.90
2018-10-05T22:21:54.805Z,9.80
2018-10-05T22:24:23.948Z,9.80
2018-10-05T22:26:52.463Z,9.80
2018-10-05T22:29:20.827Z,9.80
2018-10-05T22:31:49.601Z,9.80
2018-10-05T22:34:17.943Z,9.80
2018-10-05T22:36:46.320Z,9.80
2018-10-05T22:39:15.006Z,9.80
2018-10-05T22:41:43.485Z,9.80
2018-10-05T22:44:11.813Z,9.70
2018-10-05T22:46:41.201Z,9.70
2018-10-05T22:49:10.001Z,9.70
2018-10-05T22:51:38.323Z,9.70
2018-10-05T22:54:07.110Z,9.70
2018-10-05T22:56:35.440Z,9.60
2018-10-05T22:59:03.747Z,9.70
2018-10-05T23:01:32.628Z,9.70
2018-10-05T23:04:00.939Z,9.80
2018-10-05T23:06:29.837Z,9.80
2018-10-05T23:08:58.668Z,9.80
2018-10-05T23:11:27.006Z,9.80
2018-10-05T23:13:55.325Z,9.80
2018-10-05T23:16:24.305Z,9.80
2018-10-05T23:18:52.627Z,9.80
2018-10-05T23:21:20.934Z,9.90
2018-10-05T23:23:49.614Z,9.90
2018-10-05T23:26:18.047Z,9.80
2018-10-05T23:28:46.813Z,9.80
2018-10-05T23:31:15.603Z,9.80
2018-10-05T23:33:43.928Z,9.90
2018-10-05T23:36:12.283Z,9.80
2018-10-05T23:38:40.837Z,9.90
2018-10-05T23:41:09.185Z,9.80
2018-10-05T23:43:37.513Z,9.80
2018-10-05T23:46:06.291Z,9.80
2018-10-05T23:48:34.882Z,9.80
2018-10-05T23:51:03.343Z,9.70
2018-10-05T23:53:32.413Z,9.70
2018-10-05T23:56:00.826Z,9.70
2018-10-05T23:58:29.142Z,9.70
